sensor_id;sensor_type;location;lat;lon;timestamp;pressure;altitude;pressure_sealevel;temperature;humidity
56713;BME280;42589;45.536;9.032;2023-05-14T00:01:56;99693.19;;;42.94;14.63
56713;BME280;42589;45.536;9.032;2023-05-14T00:08:53;99680.16;;;43.25;14.45
56713;BME280;42589;45.536;9.032;2023-05-14T00:11:54;99687.09;;;43.34;14.85
56713;BME280;42589;45.536;9.032;2023-05-14T00:14:55;99680.03;;;43.44;14.37
56713;BME280;42589;45.536;9.032;2023-05-14T00:17:56;99677.19;;;42.49;15.19
56713;BME280;42589;45.536;9.032;2023-05-14T00:20:58;99672.75;;;43.13;14.80
56713;BME280;42589;45.536;9.032;2023-05-14T00:23:59;99677.16;;;43.64;14.60
56713;BME280;42589;45.536;9.032;2023-05-14T00:27:01;99673.63;;;42.71;15.03
56713;BME280;42589;45.536;9.032;2023-05-14T00:30:05;99667.91;;;43.90;14.78
56713;BME280;42589;45.536;9.032;2023-05-14T00:33:06;99665.44;;;42.39;15.07
56713;BME280;42589;45.536;9.032;2023-05-14T00:36:07;99661.59;;;43.66;14.17
56713;BME280;42589;45.536;9.032;2023-05-14T00:39:08;99657.22;;;42.70;14.87
56713;BME280;42589;45.536;9.032;2023-05-14T00:42:09;99660.84;;;43.43;13.82
56713;BME280;42589;45.536;9.032;2023-05-14T00:45:09;99651.25;;;43.70;13.95
56713;BME280;42589;45.536;9.032;2023-05-14T00:48:11;99651.97;;;43.37;14.22
56713;BME280;42589;45.536;9.032;2023-05-14T00:51:11;99644.69;;;43.55;14.19
56713;BME280;42589;45.536;9.032;2023-05-14T00:54:15;99646.88;;;43.99;14.20
56713;BME280;42589;45.536;9.032;2023-05-14T00:57:17;99641.16;;;43.92;14.46
56713;BME280;42589;45.536;9.032;2023-05-14T01:00:18;99644.34;;;43.34;14.05
56713;BME280;42589;45.536;9.032;2023-05-14T01:03:19;99634.94;;;42.96;14.45
56713;BME280;42589;45.536;9.032;2023-05-14T01:15:52;99631.16;;;43.34;14.47
56713;BME280;42589;45.536;9.032;2023-05-14T01:18:55;99633.19;;;43.38;14.56
56713;BME280;42589;45.536;9.032;2023-05-14T01:21:56;99634.00;;;43.38;14.32
56713;BME280;42589;45.536;9.032;2023-05-14T01:24:58;99633.09;;;43.87;13.98
56713;BME280;42589;45.536;9.032;2023-05-14T01:28:08;99626.53;;;44.06;14.01
56713;BME280;42589;45.536;9.032;2023-05-14T01:31:17;99627.84;;;44.16;14.10
56713;BME280;42589;45.536;9.032;2023-05-14T01:34:20;99623.53;;;44.22;13.72
56713;BME280;42589;45.536;9.032;2023-05-14T01:37:26;99623.66;;;43.99;13.96
56713;BME280;42589;45.536;9.032;2023-05-14T01:40:28;99618.41;;;43.37;14.16
56713;BME280;42589;45.536;9.032;2023-05-14T01:43:30;99607.00;;;43.23;14.46
56713;BME280;42589;45.536;9.032;2023-05-14T01:46:31;99618.06;;;42.89;15.43
56713;BME280;42589;45.536;9.032;2023-05-14T01:49:32;99600.81;;;40.05;17.55
56713;BME280;42589;45.536;9.032;2023-05-14T01:52:33;99605.22;;;40.06;17.96
56713;BME280;42589;45.536;9.032;2023-05-14T01:55:34;99608.69;;;41.06;16.87
56713;BME280;42589;45.536;9.032;2023-05-14T01:58:34;99606.84;;;40.35;17.21
56713;BME280;42589;45.536;9.032;2023-05-14T02:01:35;99603.19;;;42.85;15.64
56713;BME280;42589;45.536;9.032;2023-05-14T02:04:35;99602.84;;;42.02;15.90
56713;BME280;42589;45.536;9.032;2023-05-14T02:07:36;99604.13;;;42.93;15.19
56713;BME280;42589;45.536;9.032;2023-05-14T02:10:37;99599.53;;;41.96;16.11
56713;BME280;42589;45.536;9.032;2023-05-14T02:13:38;99585.75;;;41.13;17.03
56713;BME280;42589;45.536;9.032;2023-05-14T02:16:38;99586.97;;;42.06;15.91
56713;BME280;42589;45.536;9.032;2023-05-14T02:19:39;99588.41;;;42.38;16.19
56713;BME280;42589;45.536;9.032;2023-05-14T02:22:40;99587.75;;;42.26;16.19
56713;BME280;42589;45.536;9.032;2023-05-14T02:25:44;99588.56;;;43.48;15.25
56713;BME280;42589;45.536;9.032;2023-05-14T02:28:47;99582.47;;;42.20;16.33
56713;BME280;42589;45.536;9.032;2023-05-14T02:31:47;99576.19;;;41.30;17.27
56713;BME280;42589;45.536;9.032;2023-05-14T02:34:48;99581.91;;;41.72;16.80
56713;BME280;42589;45.536;9.032;2023-05-14T02:37:49;99573.53;;;41.02;17.55
56713;BME280;42589;45.536;9.032;2023-05-14T02:40:49;99569.91;;;42.30;16.01
56713;BME280;42589;45.536;9.032;2023-05-14T02:43:51;99564.44;;;41.56;16.98
56713;BME280;42589;45.536;9.032;2023-05-14T02:46:52;99559.16;;;41.90;16.41
56713;BME280;42589;45.536;9.032;2023-05-14T02:50:02;99564.81;;;43.62;15.37
56713;BME280;42589;45.536;9.032;2023-05-14T02:53:05;99560.53;;;41.61;15.83
56713;BME280;42589;45.536;9.032;2023-05-14T02:56:05;99555.16;;;42.10;15.86
56713;BME280;42589;45.536;9.032;2023-05-14T02:59:07;99564.66;;;40.80;16.96
56713;BME280;42589;45.536;9.032;2023-05-14T03:02:07;99562.56;;;42.68;15.55
56713;BME280;42589;45.536;9.032;2023-05-14T03:05:08;99561.28;;;42.39;15.81
56713;BME280;42589;45.536;9.032;2023-05-14T03:08:09;99558.97;;;42.91;15.81
56713;BME280;42589;45.536;9.032;2023-05-14T03:11:09;99561.97;;;42.32;15.93
56713;BME280;42589;45.536;9.032;2023-05-14T03:14:13;99553.91;;;43.00;15.58
56713;BME280;42589;45.536;9.032;2023-05-14T03:17:13;99558.50;;;41.96;16.32
56713;BME280;42589;45.536;9.032;2023-05-14T03:20:14;99556.88;;;41.76;16.27
56713;BME280;42589;45.536;9.032;2023-05-14T03:23:15;99557.25;;;41.55;17.20
56713;BME280;42589;45.536;9.032;2023-05-14T03:26:15;99556.72;;;40.98;17.37
56713;BME280;42589;45.536;9.032;2023-05-14T03:29:16;99562.72;;;42.29;16.22
56713;BME280;42589;45.536;9.032;2023-05-14T03:32:17;99544.13;;;41.40;16.73
56713;BME280;42589;45.536;9.032;2023-05-14T03:35:17;99533.50;;;37.78;19.79
56713;BME280;42589;45.536;9.032;2023-05-14T03:38:18;99530.72;;;36.86;20.87
56713;BME280;42589;45.536;9.032;2023-05-14T03:41:20;99530.47;;;36.14;22.01
56713;BME280;42589;45.536;9.032;2023-05-14T03:44:32;99513.84;;;36.32;21.95
56713;BME280;42589;45.536;9.032;2023-05-14T03:47:32;99527.16;;;39.06;19.37
56713;BME280;42589;45.536;9.032;2023-05-14T03:50:33;99522.72;;;40.13;17.52
56713;BME280;42589;45.536;9.032;2023-05-14T03:53:34;99526.91;;;40.20;17.75
56713;BME280;42589;45.536;9.032;2023-05-14T03:56:35;99509.91;;;38.39;19.25
56713;BME280;42589;45.536;9.032;2023-05-14T03:59:35;99509.28;;;37.04;20.91
56713;BME280;42589;45.536;9.032;2023-05-14T04:02:36;99507.41;;;38.37;19.24
56713;BME280;42589;45.536;9.032;2023-05-14T04:05:37;99501.22;;;38.40;18.80
56713;BME280;42589;45.536;9.032;2023-05-14T04:08:38;99507.56;;;41.06;17.08
56713;BME280;42589;45.536;9.032;2023-05-14T04:11:39;99516.16;;;41.52;16.77
56713;BME280;42589;45.536;9.032;2023-05-14T04:14:39;99515.06;;;42.41;15.61
56713;BME280;42589;45.536;9.032;2023-05-14T04:17:40;99519.31;;;42.12;15.79
56713;BME280;42589;45.536;9.032;2023-05-14T04:20:41;99520.09;;;41.51;16.45
56713;BME280;42589;45.536;9.032;2023-05-14T04:23:41;99516.75;;;42.04;15.67
56713;BME280;42589;45.536;9.032;2023-05-14T04:26:43;99514.31;;;40.89;16.93
56713;BME280;42589;45.536;9.032;2023-05-14T04:29:44;99513.34;;;40.66;17.58
56713;BME280;42589;45.536;9.032;2023-05-14T04:32:45;99510.66;;;41.98;16.06
56713;BME280;42589;45.536;9.032;2023-05-14T04:35:46;99522.28;;;41.81;16.14
56713;BME280;42589;45.536;9.032;2023-05-14T04:38:46;99515.84;;;42.19;15.80
56713;BME280;42589;45.536;9.032;2023-05-14T04:41:47;99517.41;;;42.39;15.58
56713;BME280;42589;45.536;9.032;2023-05-14T04:44:48;99521.16;;;41.27;16.81
56713;BME280;42589;45.536;9.032;2023-05-14T04:47:49;99515.63;;;41.11;16.84
56713;BME280;42589;45.536;9.032;2023-05-14T04:50:50;99514.88;;;41.49;16.68
56713;BME280;42589;45.536;9.032;2023-05-14T04:53:51;99512.34;;;42.03;16.34
56713;BME280;42589;45.536;9.032;2023-05-14T04:56:52;99504.06;;;40.14;17.45
56713;BME280;42589;45.536;9.032;2023-05-14T04:59:54;99504.72;;;39.27;18.82
56713;BME280;42589;45.536;9.032;2023-05-14T05:02:54;99508.81;;;40.93;17.45
56713;BME280;42589;45.536;9.032;2023-05-14T05:05:55;99507.78;;;40.66;17.31
56713;BME280;42589;45.536;9.032;2023-05-14T05:08:56;99513.53;;;41.82;16.41
56713;BME280;42589;45.536;9.032;2023-05-14T05:11:57;99512.19;;;40.67;17.04
56713;BME280;42589;45.536;9.032;2023-05-14T05:14:58;99510.31;;;39.95;18.52
56713;BME280;42589;45.536;9.032;2023-05-14T05:17:59;99499.84;;;38.59;19.30
56713;BME280;42589;45.536;9.032;2023-05-14T05:21:00;99512.28;;;41.21;16.96
56713;BME280;42589;45.536;9.032;2023-05-14T05:24:00;99505.88;;;41.21;16.69
56713;BME280;42589;45.536;9.032;2023-05-14T05:27:01;99512.22;;;41.76;16.56
56713;BME280;42589;45.536;9.032;2023-05-14T05:30:13;99512.81;;;42.51;16.41
56713;BME280;42589;45.536;9.032;2023-05-14T05:33:16;99510.50;;;42.56;15.73
56713;BME280;42589;45.536;9.032;2023-05-14T05:36:18;99513.69;;;41.50;16.94
56713;BME280;42589;45.536;9.032;2023-05-14T05:39:20;99502.53;;;41.89;16.58
56713;BME280;42589;45.536;9.032;2023-05-14T05:42:22;99511.72;;;42.32;15.98
56713;BME280;42589;45.536;9.032;2023-05-14T05:45:24;99510.75;;;41.63;16.66
56713;BME280;42589;45.536;9.032;2023-05-14T05:48:25;99512.13;;;41.14;17.26
56713;BME280;42589;45.536;9.032;2023-05-14T05:51:26;99513.16;;;41.25;17.00
56713;BME280;42589;45.536;9.032;2023-05-14T05:54:27;99500.09;;;40.94;17.43
56713;BME280;42589;45.536;9.032;2023-05-14T05:57:28;99501.88;;;39.91;18.53
56713;BME280;42589;45.536;9.032;2023-05-14T06:00:28;99501.09;;;41.99;16.72
56713;BME280;42589;45.536;9.032;2023-05-14T06:03:30;99494.47;;;40.59;17.61
56713;BME280;42589;45.536;9.032;2023-05-14T06:06:30;99490.06;;;40.74;17.79
56713;BME280;42589;45.536;9.032;2023-05-14T06:09:31;99491.03;;;41.52;17.11
56713;BME280;42589;45.536;9.032;2023-05-14T06:12:35;99496.16;;;42.58;16.25
56713;BME280;42589;45.536;9.032;2023-05-14T06:15:37;99495.78;;;41.51;17.39
56713;BME280;42589;45.536;9.032;2023-05-14T06:18:37;99490.28;;;42.17;17.27
56713;BME280;42589;45.536;9.032;2023-05-14T06:21:38;99491.31;;;42.55;16.47
56713;BME280;42589;45.536;9.032;2023-05-14T06:24:39;99487.13;;;41.37;17.30
56713;BME280;42589;45.536;9.032;2023-05-14T06:27:41;99486.66;;;41.74;17.71
56713;BME280;42589;45.536;9.032;2023-05-14T06:30:42;99485.53;;;41.56;17.39
56713;BME280;42589;45.536;9.032;2023-05-14T06:33:43;99476.94;;;38.62;19.86
56713;BME280;42589;45.536;9.032;2023-05-14T06:36:44;99487.19;;;42.22;16.68
56713;BME280;42589;45.536;9.032;2023-05-14T06:39:44;99474.28;;;40.62;17.53
56713;BME280;42589;45.536;9.032;2023-05-14T06:42:49;99491.06;;;42.17;16.78
56713;BME280;42589;45.536;9.032;2023-05-14T06:45:51;99494.91;;;43.35;16.00
56713;BME280;42589;45.536;9.032;2023-05-14T06:48:52;99483.81;;;39.85;18.65
56713;BME280;42589;45.536;9.032;2023-05-14T06:51:53;99485.13;;;41.18;17.30
56713;BME280;42589;45.536;9.032;2023-05-14T06:54:53;99474.22;;;39.99;18.50
56713;BME280;42589;45.536;9.032;2023-05-14T06:57:54;99486.44;;;40.89;17.90
56713;BME280;42589;45.536;9.032;2023-05-14T07:00:54;99491.69;;;42.07;16.24
56713;BME280;42589;45.536;9.032;2023-05-14T07:03:55;99489.66;;;42.73;15.92
56713;BME280;42589;45.536;9.032;2023-05-14T07:06:59;99488.66;;;43.83;15.36
56713;BME280;42589;45.536;9.032;2023-05-14T07:09:59;99502.09;;;44.44;15.08
56713;BME280;42589;45.536;9.032;2023-05-14T07:13:02;99483.88;;;40.17;18.00
56713;BME280;42589;45.536;9.032;2023-05-14T07:16:06;99487.63;;;42.47;16.02
56713;BME280;42589;45.536;9.032;2023-05-14T07:19:09;99481.97;;;39.21;18.46
56713;BME280;42589;45.536;9.032;2023-05-14T07:22:10;99473.56;;;38.68;19.27
56713;BME280;42589;45.536;9.032;2023-05-14T07:25:11;99469.94;;;39.45;18.32
56713;BME280;42589;45.536;9.032;2023-05-14T07:28:12;99469.94;;;42.66;15.90
56713;BME280;42589;45.536;9.032;2023-05-14T07:31:13;99471.53;;;42.17;15.96
56713;BME280;42589;45.536;9.032;2023-05-14T07:34:13;99474.00;;;43.55;15.41
56713;BME280;42589;45.536;9.032;2023-05-14T07:37:14;99472.59;;;44.65;14.64
56713;BME280;42589;45.536;9.032;2023-05-14T07:40:15;99470.22;;;43.44;15.17
56713;BME280;42589;45.536;9.032;2023-05-14T07:43:16;99469.22;;;43.93;14.77
56713;BME280;42589;45.536;9.032;2023-05-14T07:46:16;99464.97;;;42.79;15.51
56713;BME280;42589;45.536;9.032;2023-05-14T07:49:18;99464.22;;;41.09;16.47
56713;BME280;42589;45.536;9.032;2023-05-14T07:52:18;99467.81;;;41.28;16.89
56713;BME280;42589;45.536;9.032;2023-05-14T07:55:18;99463.47;;;41.31;16.59
56713;BME280;42589;45.536;9.032;2023-05-14T07:58:19;99460.16;;;41.84;16.39
56713;BME280;42589;45.536;9.032;2023-05-14T08:01:20;99460.78;;;42.69;15.66
56713;BME280;42589;45.536;9.032;2023-05-14T08:04:20;99454.81;;;39.86;17.63
56713;BME280;42589;45.536;9.032;2023-05-14T08:07:22;99454.66;;;40.11;17.86
56713;BME280;42589;45.536;9.032;2023-05-14T08:10:23;99452.03;;;41.36;16.96
56713;BME280;42589;45.536;9.032;2023-05-14T08:13:24;99445.38;;;42.52;16.09
56713;BME280;42589;45.536;9.032;2023-05-14T08:16:25;99433.25;;;37.55;19.22
56713;BME280;42589;45.536;9.032;2023-05-14T08:19:26;99427.28;;;39.25;18.94
56713;BME280;42589;45.536;9.032;2023-05-14T08:22:27;99431.84;;;41.04;17.03
56713;BME280;42589;45.536;9.032;2023-05-14T08:25:28;99435.03;;;41.84;16.70
56713;BME280;42589;45.536;9.032;2023-05-14T08:28:29;99434.44;;;45.08;14.40
56713;BME280;42589;45.536;9.032;2023-05-14T08:31:33;99445.50;;;44.76;14.62
56713;BME280;42589;45.536;9.032;2023-05-14T08:34:34;99435.22;;;42.94;15.54
56713;BME280;42589;45.536;9.032;2023-05-14T08:37:38;99438.94;;;44.58;14.29
56713;BME280;42589;45.536;9.032;2023-05-14T08:40:39;99436.75;;;42.61;15.52
56713;BME280;42589;45.536;9.032;2023-05-14T08:46:52;99442.13;;;43.67;14.75
56713;BME280;42589;45.536;9.032;2023-05-14T08:50:00;99430.19;;;42.27;15.17
56713;BME280;42589;45.536;9.032;2023-05-14T08:53:03;99425.78;;;41.18;16.34
56713;BME280;42589;45.536;9.032;2023-05-14T08:56:05;99419.91;;;41.62;15.83
56713;BME280;42589;45.536;9.032;2023-05-14T08:59:06;99419.28;;;40.43;16.08
56713;BME280;42589;45.536;9.032;2023-05-14T09:02:08;99413.34;;;38.97;17.52
56713;BME280;42589;45.536;9.032;2023-05-14T09:05:12;99413.69;;;42.67;14.43
56713;BME280;42589;45.536;9.032;2023-05-14T09:08:14;99416.69;;;41.21;15.69
56713;BME280;42589;45.536;9.032;2023-05-14T09:11:15;99412.44;;;42.65;13.27
56713;BME280;42589;45.536;9.032;2023-05-14T09:14:18;99408.03;;;41.88;15.04
56713;BME280;42589;45.536;9.032;2023-05-14T09:17:19;99394.66;;;38.32;17.54
56713;BME280;42589;45.536;9.032;2023-05-14T09:20:20;99391.31;;;39.04;17.51
56713;BME280;42589;45.536;9.032;2023-05-14T09:23:20;99391.28;;;41.88;15.46
56713;BME280;42589;45.536;9.032;2023-05-14T09:26:25;99390.38;;;42.30;15.75
56713;BME280;42589;45.536;9.032;2023-05-14T09:29:27;99396.19;;;43.68;14.45
56713;BME280;42589;45.536;9.032;2023-05-14T09:32:34;99388.03;;;42.32;16.22
56713;BME280;42589;45.536;9.032;2023-05-14T09:35:39;99388.25;;;42.73;15.33
56713;BME280;42589;45.536;9.032;2023-05-14T09:38:42;99388.97;;;42.43;15.40
56713;BME280;42589;45.536;9.032;2023-05-14T09:41:43;99382.97;;;40.20;16.51
56713;BME280;42589;45.536;9.032;2023-05-14T09:44:44;99389.66;;;44.53;13.51
56713;BME280;42589;45.536;9.032;2023-05-14T09:47:45;99384.44;;;42.31;14.01
56713;BME280;42589;45.536;9.032;2023-05-14T09:50:46;99381.72;;;43.25;13.85
56713;BME280;42589;45.536;9.032;2023-05-14T09:53:46;99370.09;;;42.89;14.28
56713;BME280;42589;45.536;9.032;2023-05-14T09:56:48;99378.34;;;44.32;14.10
56713;BME280;42589;45.536;9.032;2023-05-14T09:59:50;99384.88;;;45.45;13.36
56713;BME280;42589;45.536;9.032;2023-05-14T10:02:51;99372.66;;;41.30;15.28
56713;BME280;42589;45.536;9.032;2023-05-14T10:05:54;99368.69;;;47.69;11.73
56713;BME280;42589;45.536;9.032;2023-05-14T10:08:57;99371.19;;;49.18;10.91
56713;BME280;42589;45.536;9.032;2023-05-14T10:12:00;99352.91;;;43.59;12.80
56713;BME280;42589;45.536;9.032;2023-05-14T10:15:11;99341.13;;;43.05;13.89
56713;BME280;42589;45.536;9.032;2023-05-14T10:18:16;99349.09;;;45.09;12.18
56713;BME280;42589;45.536;9.032;2023-05-14T10:21:19;99337.66;;;43.93;13.85
56713;BME280;42589;45.536;9.032;2023-05-14T10:24:21;99333.72;;;41.57;15.60
56713;BME280;42589;45.536;9.032;2023-05-14T10:27:22;99337.16;;;46.45;12.85
56713;BME280;42589;45.536;9.032;2023-05-14T10:30:23;99331.88;;;43.01;13.98
56713;BME280;42589;45.536;9.032;2023-05-14T10:33:23;99325.47;;;42.66;14.64
56713;BME280;42589;45.536;9.032;2023-05-14T10:36:24;99331.47;;;45.09;12.92
56713;BME280;42589;45.536;9.032;2023-05-14T10:42:41;99330.09;;;47.07;11.13
56713;BME280;42589;45.536;9.032;2023-05-14T10:45:43;99318.78;;;43.87;13.17
56713;BME280;42589;45.536;9.032;2023-05-14T10:48:45;99325.16;;;47.25;11.63
56713;BME280;42589;45.536;9.032;2023-05-14T10:51:47;99321.41;;;46.80;11.29
56713;BME280;42589;45.536;9.032;2023-05-14T10:54:53;99309.16;;;45.66;12.01
56713;BME280;42589;45.536;9.032;2023-05-14T10:57:57;99312.84;;;47.64;11.53
56713;BME280;42589;45.536;9.032;2023-05-14T11:00:59;99315.13;;;47.83;10.64
56713;BME280;42589;45.536;9.032;2023-05-14T11:04:01;99307.41;;;47.91;11.35
56713;BME280;42589;45.536;9.032;2023-05-14T11:07:03;99307.53;;;47.77;10.81
56713;BME280;42589;45.536;9.032;2023-05-14T11:10:09;99290.31;;;49.08;11.13
56713;BME280;42589;45.536;9.032;2023-05-14T11:13:10;99261.53;;;40.90;15.48
56713;BME280;42589;45.536;9.032;2023-05-14T11:16:11;99262.72;;;40.14;15.83
56713;BME280;42589;45.536;9.032;2023-05-14T11:19:13;99260.66;;;42.54;13.93
56713;BME280;42589;45.536;9.032;2023-05-14T11:22:13;99259.56;;;43.85;12.60
56713;BME280;42589;45.536;9.032;2023-05-14T11:25:14;99263.44;;;45.30;12.63
56713;BME280;42589;45.536;9.032;2023-05-14T11:28:16;99262.34;;;47.46;10.66
56713;BME280;42589;45.536;9.032;2023-05-14T11:31:17;99252.09;;;44.90;11.57
56713;BME280;42589;45.536;9.032;2023-05-14T11:34:18;99237.44;;;43.62;12.66
56713;BME280;42589;45.536;9.032;2023-05-14T11:37:18;99231.78;;;45.65;11.68
56713;BME280;42589;45.536;9.032;2023-05-14T11:40:19;99229.28;;;43.46;13.05
56713;BME280;42589;45.536;9.032;2023-05-14T11:43:20;99234.50;;;47.03;11.06
56713;BME280;42589;45.536;9.032;2023-05-14T11:46:24;99225.31;;;45.82;11.93
56713;BME280;42589;45.536;9.032;2023-05-14T11:49:26;99219.25;;;47.53;10.87
56713;BME280;42589;45.536;9.032;2023-05-14T11:52:28;99231.09;;;48.77;10.57
56713;BME280;42589;45.536;9.032;2023-05-14T11:55:28;99211.97;;;41.45;14.49
56713;BME280;42589;45.536;9.032;2023-05-14T11:58:32;99214.22;;;47.30;11.59
56713;BME280;42589;45.536;9.032;2023-05-14T12:01:39;99219.78;;;48.20;10.69
56713;BME280;42589;45.536;9.032;2023-05-14T12:04:41;99200.84;;;43.37;12.09
56713;BME280;42589;45.536;9.032;2023-05-14T12:07:43;99203.19;;;47.01;10.56
56713;BME280;42589;45.536;9.032;2023-05-14T12:10:44;99199.66;;;47.83;10.52
56713;BME280;42589;45.536;9.032;2023-05-14T12:13:44;99208.28;;;48.38;10.70
56713;BME280;42589;45.536;9.032;2023-05-14T12:16:47;99201.41;;;48.39;9.54
56713;BME280;42589;45.536;9.032;2023-05-14T12:19:51;99193.75;;;47.22;10.56
56713;BME280;42589;45.536;9.032;2023-05-14T12:22:53;99184.56;;;42.67;13.09
56713;BME280;42589;45.536;9.032;2023-05-14T12:25:53;99192.75;;;46.17;11.46
56713;BME280;42589;45.536;9.032;2023-05-14T12:28:59;99189.50;;;47.93;10.26
56713;BME280;42589;45.536;9.032;2023-05-14T12:32:10;99180.25;;;49.35;9.52
56713;BME280;42589;45.536;9.032;2023-05-14T12:35:10;99170.78;;;43.78;12.26
56713;BME280;42589;45.536;9.032;2023-05-14T12:38:11;99161.66;;;46.53;11.41
56713;BME280;42589;45.536;9.032;2023-05-14T12:41:12;99159.13;;;48.96;9.72
56713;BME280;42589;45.536;9.032;2023-05-14T12:44:13;99162.72;;;48.97;9.83
56713;BME280;42589;45.536;9.032;2023-05-14T12:47:14;99153.91;;;49.42;9.59
56713;BME280;42589;45.536;9.032;2023-05-14T12:50:16;99160.41;;;49.82;9.70
56713;BME280;42589;45.536;9.032;2023-05-14T12:53:16;99147.09;;;48.92;10.02
56713;BME280;42589;45.536;9.032;2023-05-14T12:56:17;99141.03;;;47.71;10.50
56713;BME280;42589;45.536;9.032;2023-05-14T12:59:17;99135.41;;;48.67;10.71
56713;BME280;42589;45.536;9.032;2023-05-14T13:02:18;99120.19;;;46.01;11.91
56713;BME280;42589;45.536;9.032;2023-05-14T13:05:19;99123.53;;;47.90;10.78
56713;BME280;42589;45.536;9.032;2023-05-14T13:08:20;99108.19;;;42.94;13.51
56713;BME280;42589;45.536;9.032;2023-05-14T13:11:23;99120.84;;;48.14;10.50
56713;BME280;42589;45.536;9.032;2023-05-14T13:14:27;99110.63;;;48.54;10.18
56713;BME280;42589;45.536;9.032;2023-05-14T13:17:28;99108.41;;;49.40;10.22
56713;BME280;42589;45.536;9.032;2023-05-14T13:20:32;99109.44;;;49.69;9.42
56713;BME280;42589;45.536;9.032;2023-05-14T13:23:33;99115.16;;;49.66;9.81
56713;BME280;42589;45.536;9.032;2023-05-14T13:26:33;99109.44;;;50.46;9.65
56713;BME280;42589;45.536;9.032;2023-05-14T13:29:34;99105.28;;;50.14;9.31
56713;BME280;42589;45.536;9.032;2023-05-14T13:32:35;99102.41;;;48.36;9.57
56713;BME280;42589;45.536;9.032;2023-05-14T13:35:36;99096.03;;;50.13;9.26
56713;BME280;42589;45.536;9.032;2023-05-14T13:38:36;99086.44;;;49.71;9.59
56713;BME280;42589;45.536;9.032;2023-05-14T13:41:38;99090.69;;;48.92;9.88
56713;BME280;42589;45.536;9.032;2023-05-14T13:44:43;99093.91;;;48.67;10.40
56713;BME280;42589;45.536;9.032;2023-05-14T13:47:50;99086.44;;;48.26;10.70
56713;BME280;42589;45.536;9.032;2023-05-14T13:50:50;99085.28;;;48.24;10.26
56713;BME280;42589;45.536;9.032;2023-05-14T13:53:52;99070.38;;;47.96;10.68
56713;BME280;42589;45.536;9.032;2023-05-14T13:56:53;99067.13;;;46.18;11.33
56713;BME280;42589;45.536;9.032;2023-05-14T13:59:54;99061.47;;;45.01;12.13
56713;BME280;42589;45.536;9.032;2023-05-14T14:02:55;99069.00;;;46.98;10.68
56713;BME280;42589;45.536;9.032;2023-05-14T14:05:56;99066.66;;;49.71;9.60
56713;BME280;42589;45.536;9.032;2023-05-14T14:08:56;99061.25;;;50.69;9.00
56713;BME280;42589;45.536;9.032;2023-05-14T14:11:57;99053.16;;;50.35;9.23
56713;BME280;42589;45.536;9.032;2023-05-14T14:14:58;99049.53;;;50.34;9.39
56713;BME280;42589;45.536;9.032;2023-05-14T14:18:00;99055.38;;;50.44;9.59
56713;BME280;42589;45.536;9.032;2023-05-14T14:21:00;99053.41;;;50.90;9.12
56713;BME280;42589;45.536;9.032;2023-05-14T14:24:01;99047.56;;;49.15;9.46
56713;BME280;42589;45.536;9.032;2023-05-14T14:27:02;99048.06;;;48.63;9.90
56713;BME280;42589;45.536;9.032;2023-05-14T14:30:06;99048.47;;;51.10;8.65
56713;BME280;42589;45.536;9.032;2023-05-14T14:33:08;99046.22;;;50.20;8.92
56713;BME280;42589;45.536;9.032;2023-05-14T14:36:09;99046.91;;;49.71;8.90
56713;BME280;42589;45.536;9.032;2023-05-14T14:39:10;99049.34;;;50.58;8.92
56713;BME280;42589;45.536;9.032;2023-05-14T14:42:11;99043.00;;;50.86;8.70
56713;BME280;42589;45.536;9.032;2023-05-14T14:45:12;99039.94;;;47.84;10.01
56713;BME280;42589;45.536;9.032;2023-05-14T14:48:32;99034.81;;;48.60;9.59
56713;BME280;42589;45.536;9.032;2023-05-14T14:51:41;99052.63;;;51.35;8.38
56713;BME280;42589;45.536;9.032;2023-05-14T14:54:42;99048.06;;;52.72;7.61
56713;BME280;42589;45.536;9.032;2023-05-14T14:57:42;99046.38;;;49.76;8.73
56713;BME280;42589;45.536;9.032;2023-05-14T15:00:43;99043.19;;;50.96;8.46
56713;BME280;42589;45.536;9.032;2023-05-14T15:03:43;99021.31;;;46.84;10.74
56713;BME280;42589;45.536;9.032;2023-05-14T15:06:44;99021.31;;;46.84;10.93
56713;BME280;42589;45.536;9.032;2023-05-14T15:10:01;99018.81;;;48.26;9.45
56713;BME280;42589;45.536;9.032;2023-05-14T15:13:02;99035.31;;;50.54;8.44
56713;BME280;42589;45.536;9.032;2023-05-14T15:16:04;99031.19;;;49.07;9.49
56713;BME280;42589;45.536;9.032;2023-05-14T15:19:06;99019.16;;;49.46;9.27
56713;BME280;42589;45.536;9.032;2023-05-14T15:22:06;99026.84;;;49.65;9.11
56713;BME280;42589;45.536;9.032;2023-05-14T15:25:09;99020.19;;;44.23;11.58
56713;BME280;42589;45.536;9.032;2023-05-14T15:28:10;99029.88;;;47.86;9.62
56713;BME280;42589;45.536;9.032;2023-05-14T15:31:11;99024.19;;;48.17;9.31
56713;BME280;42589;45.536;9.032;2023-05-14T15:34:30;99022.19;;;50.11;8.36
56713;BME280;42589;45.536;9.032;2023-05-14T15:37:36;99026.72;;;49.09;9.03
56713;BME280;42589;45.536;9.032;2023-05-14T15:40:36;99027.59;;;48.83;8.94
56713;BME280;42589;45.536;9.032;2023-05-14T15:43:37;99023.13;;;48.34;9.25
56713;BME280;42589;45.536;9.032;2023-05-14T15:46:38;99023.13;;;48.85;9.08
56713;BME280;42589;45.536;9.032;2023-05-14T15:49:39;99021.66;;;50.00;8.67
56713;BME280;42589;45.536;9.032;2023-05-14T15:52:41;99029.13;;;50.27;8.43
56713;BME280;42589;45.536;9.032;2023-05-14T15:55:42;99029.91;;;49.51;8.72
56713;BME280;42589;45.536;9.032;2023-05-14T15:58:44;99030.28;;;50.46;8.78
56713;BME280;42589;45.536;9.032;2023-05-14T16:01:45;99035.44;;;50.14;8.65
56713;BME280;42589;45.536;9.032;2023-05-14T16:04:46;99032.84;;;50.73;8.14
56713;BME280;42589;45.536;9.032;2023-05-14T16:07:48;99038.66;;;48.19;9.01
56713;BME280;42589;45.536;9.032;2023-05-14T16:10:49;99043.31;;;49.03;8.38
56713;BME280;42589;45.536;9.032;2023-05-14T16:13:49;99030.00;;;49.28;8.22
56713;BME280;42589;45.536;9.032;2023-05-14T16:16:50;99040.72;;;49.96;8.31
56713;BME280;42589;45.536;9.032;2023-05-14T16:19:52;99050.50;;;49.91;7.95
56713;BME280;42589;45.536;9.032;2023-05-14T16:22:53;99056.78;;;50.52;8.02
56713;BME280;42589;45.536;9.032;2023-05-14T16:25:54;99043.56;;;48.66;9.04